Time;durP1;ratioP1;P1;durP2;ratioP2;P2;SDS_P1;SDS_P2;PMS_P1;PMS_P2;Temp;Humidity;BMP_temperature;BMP_pressure;BME280_temperature;BME280_humidity;BME280_pressure;Samples;Min_cycle;Max_cycle;Signal;HPM_P1;HPM_P2
2023/12/13 00:01:43;;;;;;;75.13;33.95;;;;;;;-142.91;100.00;56616.03;5079913;28;20192;-80
2023/12/13 00:04:11;;;;;;;64.30;34.55;;;;;;;-142.91;100.00;56616.03;5103806;28;20206;-75
2023/12/13 00:09:33;;;;;;;60.45;32.65;;;;;;;-142.91;100.00;56616.03;5106649;28;20220;-79
2023/12/13 00:14:45;;;;;;;64.88;33.63;;;;;;;-142.91;100.00;56616.03;5101372;28;20260;-82
2023/12/13 00:17:25;;;;;;;65.18;33.40;;;;;;;-142.91;100.00;56616.03;5078990;28;20202;-79
2023/12/13 00:19:54;;;;;;;62.40;32.95;;;;;;;-142.91;100.00;56616.03;5082846;28;20237;-78
2023/12/13 00:22:21;;;;;;;71.30;33.85;;;;;;;;;;5084590;28;20193;-78
2023/12/13 00:24:53;;;;;;;61.72;32.78;;;;;;;-142.91;100.00;56616.03;5098841;28;20228;-80
2023/12/13 00:27:23;;;;;;;71.10;35.42;;;;;;;23.25;100.00;56616.03;5106780;28;20263;-82
2023/12/13 00:29:51;;;;;;;68.00;35.08;;;;;;;;;;5083741;28;20251;-78
2023/12/13 00:32:18;;;;;;;72.10;34.88;;;;;;;-142.91;100.00;56616.03;5075251;28;20228;-78
2023/12/13 00:34:45;;;;;;;70.32;35.00;;;;;;;-142.91;100.00;56616.03;5092510;28;20209;-75
2023/12/13 00:37:13;;;;;;;71.20;34.95;;;;;;;;;;5089304;28;20197;-76
2023/12/13 00:39:40;;;;;;;70.57;33.75;;;;;;;23.25;100.00;56616.03;5080895;28;20232;-77
2023/12/13 00:42:07;;;;;;;68.15;34.15;;;;;;;-142.91;100.00;56616.03;5084033;28;21485;-77
2023/12/13 00:44:34;;;;;;;77.45;34.22;;;;;;;-142.91;100.00;56616.03;5099709;28;20254;-80
2023/12/13 00:47:01;;;;;;;72.80;34.70;;;;;;;-142.91;100.00;56616.03;5083688;28;20269;-78
2023/12/13 00:49:38;;;;;;;71.90;35.45;;;;;;;23.25;100.00;56616.03;5099173;28;20197;-79
2023/12/13 00:52:18;;;;;;;73.18;35.22;;;;;;;23.26;100.00;56616.03;5093659;28;20225;-78
2023/12/13 00:54:46;;;;;;;66.05;32.15;;;;;;;23.25;100.00;56616.03;5093439;28;20706;-77
2023/12/13 00:57:16;;;;;;;56.95;33.03;;;;;;;23.25;100.00;56616.03;5096981;28;20220;-81
2023/12/13 00:59:43;;;;;;;65.22;32.05;;;;;;;-142.91;100.00;56616.03;5100220;28;20194;-76
2023/12/13 01:02:15;;;;;;;62.65;32.80;;;;;;;-142.91;100.00;56616.03;5092067;28;20222;-80
2023/12/13 01:04:44;;;;;;;63.17;33.42;;;;;;;;;;5069999;28;20671;-77
2023/12/13 01:07:14;;;;;;;65.32;35.85;;;;;;;-142.91;100.00;56616.03;5090514;28;20217;-77
2023/12/13 01:09:54;;;;;;;64.47;32.67;;;;;;;-142.91;100.00;56616.03;5099887;28;20236;-80
2023/12/13 01:12:24;;;;;;;60.38;33.05;;;;;;;-142.91;100.00;56616.03;5096941;28;20209;-77
2023/12/13 01:14:55;;;;;;;61.92;31.50;;;;;;;-142.91;100.00;56616.03;5095152;28;20206;-79
2023/12/13 01:17:22;;;;;;;63.78;30.65;;;;;;;-142.91;100.00;56616.03;5099754;28;20197;-77
2023/12/13 01:19:52;;;;;;;65.47;31.27;;;;;;;-142.91;100.00;56616.03;5068847;28;20202;-76
2023/12/13 01:22:22;;;;;;;69.97;32.53;;;;;;;-142.91;100.00;56616.03;5096615;28;20201;-82
2023/12/13 01:24:54;;;;;;;70.10;33.72;;;;;;;;;;5101249;28;20236;-79
2023/12/13 01:27:22;;;;;;;67.85;32.25;;;;;;;-142.91;100.00;56616.03;5099198;28;20641;-77
2023/12/13 01:29:49;;;;;;;60.00;32.33;;;;;;;-142.91;100.00;56616.03;5098251;28;20224;-75
2023/12/13 01:32:17;;;;;;;66.95;32.47;;;;;;;-142.91;100.00;56616.03;5098115;28;20260;-77
2023/12/13 01:34:45;;;;;;;65.65;33.00;;;;;;;23.25;100.00;56616.03;5096741;28;20263;-76
2023/12/13 01:37:17;;;;;;;67.78;32.45;;;;;;;-142.91;100.00;56616.03;5074592;28;20193;-80
2023/12/13 01:39:48;;;;;;;64.60;30.40;;;;;;;-142.91;100.00;56616.03;5080128;28;20206;-78
2023/12/13 01:42:16;;;;;;;63.30;30.02;;;;;;;-142.91;100.00;56616.03;5094764;28;20254;-79
2023/12/13 01:44:48;;;;;;;53.88;30.05;;;;;;;-142.91;100.00;56616.03;5096132;28;20233;-79
2023/12/13 01:47:19;;;;;;;57.03;31.02;;;;;;;-142.91;100.00;56616.03;5098155;28;20685;-81
2023/12/13 01:49:51;;;;;;;62.55;32.92;;;;;;;-142.91;100.00;56616.03;5100726;28;20288;-78
2023/12/13 01:52:19;;;;;;;71.55;32.65;;;;;;;23.25;100.00;56616.03;5080250;28;20237;-80
2023/12/13 01:54:54;;;;;;;64.68;30.90;;;;;;;-142.91;100.00;56616.03;5078022;28;20248;-82
2023/12/13 01:57:38;;;;;;;59.92;31.42;;;;;;;-142.91;100.00;56616.03;5078608;28;20203;-79
2023/12/13 02:00:39;;;;;;;61.75;30.10;;;;;;;-142.91;100.00;56616.03;5077247;28;20201;-83
2023/12/13 02:03:12;;;;;;;64.20;30.35;;;;;;;-142.91;100.00;56616.03;5101407;28;20194;-79
2023/12/13 02:05:40;;;;;;;62.80;30.08;;;;;;;-142.91;100.00;56616.03;5096135;28;20292;-78
2023/12/13 02:08:08;;;;;;;63.65;29.63;;;;;;;-142.91;100.00;56616.03;5096987;28;20595;-80
2023/12/13 02:10:46;;;;;;;54.40;28.85;;;;;;;23.26;100.00;56616.03;5081793;28;20224;-78
2023/12/13 02:13:22;;;;;;;56.30;29.50;;;;;;;-142.91;100.00;56616.03;5097050;28;20198;-75
2023/12/13 02:15:58;;;;;;;66.07;30.60;;;;;;;;;;5097302;28;20213;-81
2023/12/13 02:21:12;;;;;;;68.75;30.85;;;;;;;23.25;100.00;56616.03;5094065;28;20197;-76
2023/12/13 02:23:41;;;;;;;69.47;33.53;;;;;;;-142.91;100.00;56616.03;5063320;28;20674;-76
2023/12/13 02:26:13;;;;;;;65.47;32.67;;;;;;;-142.91;100.00;56616.03;5100931;28;20670;-76
2023/12/13 02:28:41;;;;;;;55.25;29.27;;;;;;;;;;5080148;28;20212;-77
2023/12/13 02:31:10;;;;;;;56.88;30.80;;;;;;;-142.91;100.00;56616.03;5076077;28;20308;-77
2023/12/13 02:33:39;;;;;;;55.05;29.35;;;;;;;;;;5091499;28;20306;-78
2023/12/13 02:36:07;;;;;;;63.03;30.10;;;;;;;-142.91;100.00;56616.03;5089595;28;20763;-78
2023/12/13 02:38:33;;;;;;;57.85;28.38;;;;;;;;;;5092246;28;20228;-77
2023/12/13 02:41:19;;;;;;;61.05;31.70;;;;;;;23.25;100.00;56616.03;5087666;28;20237;-79
2023/12/13 02:43:53;;;;;;;54.13;29.38;;;;;;;-142.91;100.00;56616.03;5100014;28;20209;-81
2023/12/13 02:46:23;;;;;;;52.17;28.77;;;;;;;-142.91;100.00;56616.03;5096103;28;20198;-79
2023/12/13 02:49:01;;;;;;;50.42;26.77;;;;;;;23.25;100.00;56616.03;5096696;28;20240;-81
2023/12/13 02:51:37;;;;;;;49.30;26.50;;;;;;;-142.91;100.00;56616.03;5086367;28;20194;-79
2023/12/13 02:54:25;;;;;;;58.70;26.33;;;;;;;;;;5093222;28;20232;-77
2023/12/13 02:59:59;;;;;;;49.83;25.52;;;;;;;-142.91;100.00;56616.03;5100130;28;20209;-80
2023/12/13 03:02:31;;;;;;;43.92;24.38;;;;;;;23.25;100.00;56616.03;5097668;28;20255;-76
2023/12/13 03:05:03;;;;;;;47.42;24.45;;;;;;;-142.91;100.00;56616.03;5082791;28;20201;-76
2023/12/13 03:07:29;;;;;;;43.13;24.80;;;;;;;;;;5093690;28;20244;-77
2023/12/13 03:09:56;;;;;;;57.55;26.98;;;;;;;-142.91;100.00;56616.03;5091465;28;20221;-78
2023/12/13 03:12:24;;;;;;;48.80;25.92;;;;;;;-142.91;100.00;56616.03;5096107;28;20245;-77
2023/12/13 03:14:50;;;;;;;47.65;26.98;;;;;;;-142.91;100.00;56616.03;5093566;28;20738;-77
2023/12/13 03:17:17;;;;;;;51.17;27.10;;;;;;;;;;5096849;28;20704;-78
2023/12/13 03:19:44;;;;;;;44.90;24.92;;;;;;;-142.91;100.00;56616.03;5094416;28;20236;-78
2023/12/13 03:22:10;;;;;;;50.90;26.30;;;;;;;-142.91;100.00;56616.03;5092147;28;20242;-79
2023/12/13 03:24:39;;;;;;;48.72;25.90;;;;;;;-142.91;100.00;56616.03;5100008;28;20674;-78
2023/12/13 03:27:06;;;;;;;52.92;28.65;;;;;;;-142.91;100.00;56616.03;5090773;28;20287;-79
2023/12/13 03:29:34;;;;;;;47.33;26.45;;;;;;;-142.91;100.00;56616.03;5091436;28;20284;-78
2023/12/13 03:32:02;;;;;;;48.75;28.33;;;;;;;;;;5089807;28;20229;-78
2023/12/13 03:34:30;;;;;;;52.42;29.08;;;;;;;-142.91;100.00;56616.03;5094450;28;20286;-79
2023/12/13 03:36:58;;;;;;;65.22;32.20;;;;;;;-142.91;100.00;56616.03;5069565;28;20685;-80
2023/12/13 03:39:25;;;;;;;62.00;33.42;;;;;;;-142.91;100.00;56616.03;5094097;28;20248;-80
2023/12/13 03:41:54;;;;;;;69.50;34.70;;;;;;;-142.91;100.00;56616.03;5095189;28;20251;-79
2023/12/13 03:44:21;;;;;;;61.50;34.47;;;;;;;-142.91;100.00;56616.03;5074327;28;20226;-80
2023/12/13 03:46:52;;;;;;;71.82;35.38;;;;;;;-142.91;100.00;56616.03;5097915;28;20229;-79
2023/12/13 03:49:18;;;;;;;66.10;35.75;;;;;;;;;;5093556;28;20232;-78
2023/12/13 03:51:48;;;;;;;70.63;36.35;;;;;;;-142.91;100.00;56616.03;5101299;28;20229;-75
2023/12/13 03:54:14;;;;;;;70.20;35.85;;;;;;;-142.91;100.00;56616.03;5091168;28;20229;-78
2023/12/13 03:56:41;;;;;;;62.55;33.80;;;;;;;-142.91;100.00;56616.03;5093788;28;20255;-76
2023/12/13 03:59:07;;;;;;;60.85;32.33;;;;;;;;;;5092969;28;20229;-76
2023/12/13 04:01:34;;;;;;;66.82;32.70;;;;;;;-142.91;100.00;56616.03;5092178;28;20228;-77
2023/12/13 04:04:03;;;;;;;60.63;31.90;;;;;;;-142.91;100.00;56616.03;5092594;28;20263;-77
2023/12/13 04:06:29;;;;;;;59.47;32.13;;;;;;;-142.91;100.00;56616.03;5098328;28;20185;-77
2023/12/13 04:09:02;;;;;;;62.88;30.35;;;;;;;-142.91;100.00;56616.03;5092334;28;20198;-78
2023/12/13 04:11:35;;;;;;;62.17;30.13;;;;;;;-142.91;100.00;56616.03;5057967;28;20202;-76
2023/12/13 04:14:02;;;;;;;56.25;29.35;;;;;;;-142.91;100.00;56616.03;5067358;28;20267;-76
2023/12/13 04:16:32;;;;;;;52.20;28.02;;;;;;;-142.91;100.00;56616.03;5068722;28;20218;-77
2023/12/13 04:18:59;;;;;;;56.38;28.65;;;;;;;-142.91;100.00;56616.03;5092328;28;20251;-77
2023/12/13 04:21:27;;;;;;;53.42;27.30;;;;;;;-142.91;100.00;56616.03;5090446;28;20236;-78
2023/12/13 04:23:54;;;;;;;56.40;28.33;;;;;;;-142.91;100.00;56616.03;5068579;28;20244;-78
2023/12/13 04:26:23;;;;;;;58.75;29.33;;;;;;;-142.91;100.00;56616.03;5093162;28;20230;-78
2023/12/13 04:28:50;;;;;;;53.88;28.63;;;;;;;-142.91;100.00;56616.03;5079354;28;20622;-77
2023/12/13 04:31:16;;;;;;;43.72;27.27;;;;;;;-142.91;100.00;56616.03;5090818;28;20483;-80
2023/12/13 04:33:43;;;;;;;55.83;29.13;;;;;;;-142.91;100.00;56616.03;5089925;28;20225;-78
2023/12/13 04:36:10;;;;;;;54.75;28.90;;;;;;;-142.91;100.00;56616.03;5078512;28;20229;-77
2023/12/13 04:38:39;;;;;;;55.92;29.08;;;;;;;-142.91;100.00;56616.03;5089269;28;20663;-80
2023/12/13 04:41:06;;;;;;;51.42;28.75;;;;;;;-142.91;100.00;56616.03;5092103;28;20221;-78
2023/12/13 04:43:33;;;;;;;49.45;27.70;;;;;;;-142.91;100.00;56616.03;5085921;28;20225;-78
2023/12/13 04:46:05;;;;;;;56.65;30.08;;;;;;;-142.91;100.00;56616.03;5092819;28;20186;-79
2023/12/13 04:48:31;;;;;;;53.13;28.38;;;;;;;-142.91;100.00;56616.03;5092176;28;20267;-76
2023/12/13 04:50:59;;;;;;;53.28;27.42;;;;;;;-142.91;100.00;56616.03;5087685;28;20250;-78
2023/12/13 04:53:26;;;;;;;58.15;28.38;;;;;;;-142.91;100.00;56616.03;5090353;28;20672;-79
2023/12/13 04:55:55;;;;;;;60.78;31.80;;;;;;;-142.91;100.00;56616.03;5088325;28;20703;-78
2023/12/13 04:58:23;;;;;;;66.22;30.77;;;;;;;-142.91;100.00;56616.03;5094592;28;20232;-80
2023/12/13 05:00:52;;;;;;;54.42;29.20;;;;;;;-142.91;100.00;56616.03;5090878;28;20233;-77
2023/12/13 05:03:19;;;;;;;62.25;31.27;;;;;;;-142.91;100.00;56616.03;5093034;28;20217;-79
2023/12/13 05:05:46;;;;;;;61.47;31.98;;;;;;;-142.91;100.00;56616.03;5095188;28;20682;-79
2023/12/13 05:08:18;;;;;;;79.93;40.08;;;;;;;-142.91;100.00;56616.03;5089910;28;20235;-79
2023/12/13 05:10:47;;;;;;;66.53;34.40;;;;;;;;;;5094332;28;20234;-80
2023/12/13 05:13:16;;;;;;;64.43;33.83;;;;;;;-142.91;100.00;56616.03;5091505;28;20198;-78
2023/12/13 05:15:43;;;;;;;66.95;34.78;;;;;;;-142.91;100.00;56616.03;5088678;28;20275;-78
2023/12/13 05:18:10;;;;;;;59.63;32.25;;;;;;;;;;5070365;28;20266;-79
2023/12/13 05:20:36;;;;;;;54.92;32.97;;;;;;;;;;5088433;28;20198;-76
2023/12/13 05:23:03;;;;;;;58.95;33.50;;;;;;;;;;5088297;28;20727;-77
2023/12/13 05:25:30;;;;;;;56.67;31.77;;;;;;;-142.91;100.00;56616.03;5085774;28;20202;-78
2023/12/13 05:27:56;;;;;;;61.25;32.90;;;;;;;-142.91;100.00;56616.03;5090580;28;20248;-77
2023/12/13 05:30:26;;;;;;;60.92;30.70;;;;;;;-142.91;100.00;56616.03;5090794;28;20229;-78
2023/12/13 05:35:41;;;;;;;68.00;33.40;;;;;;;;;;5079158;28;20214;-79
2023/12/13 05:38:08;;;;;;;61.55;32.92;;;;;;;-142.91;100.00;56616.03;5079217;28;20709;-76
2023/12/13 05:40:35;;;;;;;57.20;30.50;;;;;;;;;;5088597;28;20736;-78
2023/12/13 05:43:01;;;;;;;58.72;31.00;;;;;;;-142.91;100.00;56616.03;5088038;28;20966;-80
2023/12/13 05:45:30;;;;;;;58.75;31.88;;;;;;;-142.91;100.00;56616.03;5091032;28;20572;-78
2023/12/13 05:47:57;;;;;;;88.00;44.97;;;;;;;-142.91;100.00;56616.03;5085117;28;20233;-80
2023/12/13 05:50:24;;;;;;;68.88;35.13;;;;;;;-142.91;100.00;56616.03;5091691;28;20225;-79
2023/12/13 05:52:51;;;;;;;57.00;30.23;;;;;;;-142.91;100.00;56616.03;5100045;28;20205;-79
2023/12/13 05:55:18;;;;;;;51.58;27.80;;;;;;;-142.91;100.00;56616.03;5092742;28;20233;-79
2023/12/13 05:57:44;;;;;;;54.30;29.60;;;;;;;-142.91;100.00;56616.03;5067836;28;20302;-81
2023/12/13 06:00:13;;;;;;;55.42;27.92;;;;;;;-142.91;100.00;56616.03;5092873;28;20710;-78
2023/12/13 06:02:41;;;;;;;42.63;25.35;;;;;;;-142.91;100.00;56616.03;5085909;28;20647;-81
2023/12/13 06:05:09;;;;;;;37.53;23.40;;;;;;;-142.91;100.00;56616.03;5091125;28;20210;-80
2023/12/13 06:07:39;;;;;;;37.60;21.73;;;;;;;;;;5085680;28;20190;-80
2023/12/13 06:10:09;;;;;;;37.00;22.30;;;;;;;;;;5092967;28;20767;-82
2023/12/13 06:12:35;;;;;;;41.60;21.60;;;;;;;-142.91;100.00;56616.03;5087315;28;20201;-80
2023/12/13 06:15:02;;;;;;;36.42;22.52;;;;;;;-142.91;100.00;56616.03;5088518;28;20675;-79
2023/12/13 06:17:29;;;;;;;41.35;23.02;;;;;;;-142.91;100.00;56616.03;5087037;28;20275;-78
2023/12/13 06:19:56;;;;;;;38.28;21.60;;;;;;;;;;5088598;28;20240;-78
2023/12/13 06:22:23;;;;;;;41.67;23.20;;;;;;;-142.91;100.00;56616.03;5087347;28;20292;-79
2023/12/13 06:24:51;;;;;;;39.33;21.27;;;;;;;-142.91;100.00;56616.03;5089097;28;20695;-79
2023/12/13 06:27:17;;;;;;;41.92;23.73;;;;;;;-142.91;100.00;56616.03;5087017;28;20737;-80
2023/12/13 06:29:44;;;;;;;43.05;23.73;;;;;;;-142.91;100.00;56616.03;5088499;28;20678;-78
2023/12/13 06:32:12;;;;;;;46.97;27.55;;;;;;;-142.91;100.00;56616.03;5086287;28;20757;-79
2023/12/13 06:34:39;;;;;;;43.10;27.02;;;;;;;-142.91;100.00;56616.03;5086834;28;20285;-77
2023/12/13 06:37:07;;;;;;;47.83;27.90;;;;;;;;;;5085841;28;20724;-78
2023/12/13 06:39:34;;;;;;;42.63;26.38;;;;;;;-142.91;100.00;56616.03;5087302;28;20205;-83
2023/12/13 06:42:01;;;;;;;44.58;25.98;;;;;;;-142.91;100.00;56616.03;5085968;28;20229;-80
2023/12/13 06:44:27;;;;;;;37.20;23.15;;;;;;;-142.91;100.00;56616.03;5084454;28;20276;-80
2023/12/13 06:46:54;;;;;;;37.33;21.42;;;;;;;-142.91;100.00;56616.03;5089589;28;20205;-81
2023/12/13 06:49:22;;;;;;;44.35;22.92;;;;;;;-142.91;100.00;56616.03;5092662;28;20269;-80
2023/12/13 06:51:50;;;;;;;45.30;23.17;;;;;;;-142.91;100.00;56616.03;5091502;28;20300;-78
2023/12/13 06:54:18;;;;;;;39.30;21.08;;;;;;;;;;5092199;28;20292;-80
2023/12/13 06:56:45;;;;;;;33.75;20.50;;;;;;;-142.91;100.00;56616.03;5089529;28;20217;-80
2023/12/13 06:59:11;;;;;;;42.15;22.30;;;;;;;-142.91;100.00;56616.03;5090435;28;20694;-79
2023/12/13 07:01:38;;;;;;;35.63;22.73;;;;;;;-142.91;100.00;56616.03;5092222;28;20252;-80
2023/12/13 07:04:05;;;;;;;40.83;22.85;;;;;;;-142.91;100.00;56616.03;5091589;28;20206;-79
2023/12/13 07:06:31;;;;;;;44.70;22.98;;;;;;;;;;5072245;28;20202;-78
2023/12/13 07:08:59;;;;;;;38.80;24.17;;;;;;;;;;5091967;28;20237;-81
2023/12/13 07:11:27;;;;;;;43.05;25.85;;;;;;;-142.91;100.00;56616.03;5090995;28;20924;-79
2023/12/13 07:13:54;;;;;;;50.42;27.52;;;;;;;-142.91;100.00;56616.03;5052777;28;20216;-79
2023/12/13 07:16:20;;;;;;;70.10;32.50;;;;;;;-142.91;100.00;56616.03;5090573;28;20252;-76
2023/12/13 07:18:47;;;;;;;60.50;30.92;;;;;;;-142.91;100.00;56616.03;5087952;28;20225;-78
2023/12/13 07:21:14;;;;;;;53.90;28.35;;;;;;;;;;5088596;28;20305;-79
2023/12/13 07:23:41;;;;;;;48.20;26.30;;;;;;;;;;5092439;28;20713;-78
2023/12/13 07:26:08;;;;;;;54.80;28.48;;;;;;;-142.91;100.00;56616.03;5093355;28;20230;-81
2023/12/13 07:28:36;;;;;;;57.15;29.65;;;;;;;-142.91;100.00;56616.03;5092572;28;20202;-79
2023/12/13 07:31:04;;;;;;;67.72;30.55;;;;;;;;;;5095018;28;20211;-81
2023/12/13 07:33:31;;;;;;;56.60;32.33;;;;;;;;;;5093004;28;20255;-79
2023/12/13 07:35:58;;;;;;;60.40;33.92;;;;;;;-142.91;100.00;56616.03;5090196;28;20241;-78
2023/12/13 07:38:25;;;;;;;60.17;33.63;;;;;;;-142.91;100.00;56616.03;5092661;28;20229;-77
2023/12/13 07:40:51;;;;;;;63.97;31.52;;;;;;;-142.91;100.00;56616.03;5094344;28;20280;-77
2023/12/13 07:43:39;;;;;;;56.22;30.20;;;;;;;;;;5097405;28;20352;-79
2023/12/13 07:46:11;;;;;;;51.70;31.27;;;;;;;-142.91;100.00;56616.03;5099869;28;20212;-78
2023/12/13 08:00:35;;;;;;;51.83;28.77;;;;;;;-142.91;100.00;56616.03;5092846;28;20549;-80
2023/12/13 08:03:18;;;;;;;44.03;27.33;;;;;;;;;;5096556;28;20210;-79
2023/12/13 08:09:10;;;;;;;64.28;34.65;;;;;;;-142.91;100.00;56616.03;5091247;28;20202;-80
2023/12/13 08:14:35;;;;;;;63.80;35.13;;;;;;;-142.91;100.00;56616.03;5094950;28;20232;-78
2023/12/13 08:20:12;;;;;;;67.22;35.22;;;;;;;-142.91;100.00;56616.03;5093184;28;20208;-76
2023/12/13 08:25:42;;;;;;;53.08;29.95;;;;;;;;;;5091531;28;20274;-77
2023/12/13 08:28:10;;;;;;;46.55;27.42;;;;;;;;;;5091543;28;20267;-79
2023/12/13 08:30:37;;;;;;;50.25;27.02;;;;;;;;;;5087643;28;20317;-80
2023/12/13 08:33:03;;;;;;;34.22;20.95;;;;;;;;;;5092683;28;20237;-81
2023/12/13 08:35:31;;;;;;;32.42;20.95;;;;;;;-142.91;100.00;56616.03;5092312;28;20695;-80
2023/12/13 08:37:57;;;;;;;31.98;19.55;;;;;;;;;;5092217;28;20230;-80
2023/12/13 08:40:24;;;;;;;31.27;19.88;;;;;;;;;;5091735;28;20259;-78
2023/12/13 08:42:50;;;;;;;32.17;19.45;;;;;;;-142.91;100.00;56616.03;5092400;28;20201;-78
2023/12/13 08:45:18;;;;;;;30.05;16.92;;;;;;;-142.91;100.00;56616.03;5088796;28;20655;-79
2023/12/13 08:51:00;;;;;;;38.08;21.98;;;;;;;;;;5092047;28;20201;-78
2023/12/13 08:53:27;;;;;;;46.08;22.80;;;;;;;;;;5072406;28;20202;-78
2023/12/13 08:55:54;;;;;;;40.67;23.50;;;;;;;-142.91;100.00;56616.03;5091589;28;20205;-79
2023/12/13 08:58:20;;;;;;;35.33;23.80;;;;;;;-142.91;100.00;56616.03;5089820;28;20710;-78
2023/12/13 09:03:59;;;;;;;33.75;22.52;;;;;;;-142.91;100.00;56616.03;5090293;28;20709;-78
2023/12/13 09:06:26;;;;;;;33.25;22.25;;;;;;;-142.91;100.00;56616.03;5090376;28;20197;-78
2023/12/13 09:08:53;;;;;;;34.70;19.48;;;;;;;;;;5094980;28;20587;-78
2023/12/13 09:11:21;;;;;;;30.17;20.88;;;;;;;-142.91;100.00;56616.03;5094108;28;20606;-77
2023/12/13 09:13:48;;;;;;;39.78;19.63;;;;;;;-142.91;100.00;56616.03;5092005;28;20233;-76
2023/12/13 09:16:16;;;;;;;36.13;20.60;;;;;;;;;;5096879;28;20228;-77
2023/12/13 09:18:44;;;;;;;37.17;20.88;;;;;;;23.25;100.00;56616.03;5094177;28;20312;-78
2023/12/13 09:23:51;;;;;;;32.55;20.98;;;;;;;-142.91;100.00;56616.03;5086563;28;20292;-76
2023/12/13 09:26:18;;;;;;;34.83;20.45;;;;;;;-142.91;100.00;56616.03;5090897;28;20205;-78
2023/12/13 09:28:44;;;;;;;38.20;20.58;;;;;;;;;;5095187;28;20243;-79
2023/12/13 09:31:12;;;;;;;38.67;23.52;;;;;;;;;;5093853;28;20201;-78
2023/12/13 09:33:41;;;;;;;54.50;24.80;;;;;;;-142.91;100.00;56616.03;5096061;28;20204;-75
2023/12/13 09:36:24;;;;;;;35.28;19.25;;;;;;;-142.91;100.00;56616.03;5101600;28;20280;-76
2023/12/13 09:42:04;;;;;;;31.95;17.85;;;;;;;23.25;100.00;56616.03;5093879;28;20232;-76
2023/12/13 09:44:45;;;;;;;28.48;17.92;;;;;;;-142.91;100.00;56616.03;5111147;28;20197;-80
2023/12/13 09:47:25;;;;;;;36.22;18.25;;;;;;;-142.91;100.00;56616.03;5096790;28;20241;-80
2023/12/13 09:50:16;;;;;;;30.35;17.80;;;;;;;;;;5089911;28;20216;-75
2023/12/13 10:01:47;;;;;;;32.03;18.10;;;;;;;-142.91;100.00;56616.03;5102209;28;20649;-78
2023/12/13 10:04:23;;;;;;;17.83;13.48;;;;;;;-142.91;100.00;56616.03;5102017;28;20234;-78
2023/12/13 10:07:30;;;;;;;23.38;15.60;;;;;;;-142.91;100.00;56616.03;5102878;28;20224;-77
2023/12/13 10:10:06;;;;;;;27.17;15.57;;;;;;;-142.91;100.00;56616.03;5080367;28;20287;-78
2023/12/13 10:12:33;;;;;;;31.27;17.67;;;;;;;-142.91;100.00;56616.03;5070499;28;20203;-79
2023/12/13 10:15:07;;;;;;;29.85;18.63;;;;;;;-142.91;100.00;56616.03;5072128;28;20202;-79
2023/12/13 10:17:35;;;;;;;28.92;17.15;;;;;;;;;;5061163;28;20241;-80
2023/12/13 10:20:06;;;;;;;34.33;16.38;;;;;;;-142.91;100.00;56616.03;5044131;28;20213;-84
2023/12/13 10:22:34;;;;;;;26.05;16.25;;;;;;;-142.91;100.00;56616.03;5054541;28;20206;-83
2023/12/13 10:25:03;;;;;;;21.48;13.95;;;;;;;-142.91;100.00;56616.03;5033125;28;20778;-85
2023/12/13 10:27:31;;;;;;;22.50;13.73;;;;;;;;;;5065040;28;20218;-79
2023/12/13 10:29:58;;;;;;;17.77;13.13;;;;;;;-142.91;100.00;56616.03;5067537;28;20218;-80
2023/12/13 10:32:26;;;;;;;19.58;11.88;;;;;;;-142.91;100.00;56616.03;5047394;28;20226;-83
2023/12/13 10:34:56;;;;;;;19.98;11.85;;;;;;;-142.91;100.00;56616.03;5066696;28;20202;-83
2023/12/13 10:37:27;;;;;;;23.92;13.75;;;;;;;-142.91;100.00;56616.03;5049723;28;20223;-82
2023/12/13 10:39:57;;;;;;;22.50;12.65;;;;;;;-142.91;100.00;56616.03;5068109;28;20273;-79
2023/12/13 10:42:25;;;;;;;19.88;12.50;;;;;;;-142.91;100.00;56616.03;5068072;28;20743;-81
2023/12/13 10:44:54;;;;;;;22.92;12.45;;;;;;;-142.91;100.00;56616.03;5029605;28;20285;-84
2023/12/13 10:47:24;;;;;;;25.30;12.15;;;;;;;-142.91;100.00;56616.03;5061791;28;20201;-81
2023/12/13 10:50:00;;;;;;;22.58;11.63;;;;;;;-142.91;100.00;56616.03;5042256;28;20305;-80
2023/12/13 10:52:33;;;;;;;22.80;13.48;;;;;;;-142.91;100.00;56616.03;5068374;28;20198;-80
2023/12/13 10:55:01;;;;;;;23.67;13.18;;;;;;;-142.91;100.00;56616.03;5053299;28;20622;-79
2023/12/13 11:00:11;;;;;;;20.05;11.70;;;;;;;-142.91;100.00;56616.03;5070250;28;20675;-79
2023/12/13 11:02:49;;;;;;;15.85;11.30;;;;;;;-142.91;100.00;56616.03;5066983;28;20295;-79
2023/12/13 11:05:21;;;;;;;27.92;12.63;;;;;;;;;;5071873;28;20200;-74
2023/12/13 11:07:52;;;;;;;20.50;12.80;;;;;;;-142.91;100.00;56616.03;5070929;28;20202;-80
2023/12/13 11:10:22;;;;;;;19.80;10.88;;;;;;;-142.91;100.00;56616.03;5083005;28;20237;-82
2023/12/13 11:12:51;;;;;;;24.67;12.50;;;;;;;;;;5091467;28;20208;-79
2023/12/13 11:15:19;;;;;;;18.27;12.60;;;;;;;-142.91;100.00;56616.03;5088516;28;20206;-82
2023/12/13 11:17:48;;;;;;;20.60;11.95;;;;;;;-142.91;100.00;56616.03;5087094;28;20304;-81
2023/12/13 11:20:20;;;;;;;24.05;13.25;;;;;;;-142.91;100.00;56616.03;5088868;28;20675;-85
2023/12/13 11:22:50;;;;;;;20.08;12.55;;;;;;;;;;5069345;28;20248;-84
2023/12/13 11:25:18;;;;;;;22.92;13.35;;;;;;;-142.91;100.00;56616.03;5088314;28;20205;-81
2023/12/13 11:30:41;;;;;;;19.13;12.93;;;;;;;-142.91;100.00;56616.03;5088696;28;20228;-85
2023/12/13 11:33:16;;;;;;;24.15;12.95;;;;;;;;;;5090358;28;20231;-84
2023/12/13 11:35:46;;;;;;;18.25;11.60;;;;;;;-142.91;100.00;56616.03;5074738;28;20576;-81
2023/12/13 11:38:28;;;;;;;30.73;12.40;;;;;;;-142.91;100.00;56616.03;5091334;28;20213;-83
2023/12/13 11:40:59;;;;;;;36.13;12.82;;;;;;;-142.91;100.00;56616.03;5072782;28;20281;-83
2023/12/13 11:43:35;;;;;;;20.27;13.00;;;;;;;-142.91;100.00;56616.03;5083719;28;20227;-79
2023/12/13 11:46:09;;;;;;;21.13;12.13;;;;;;;-142.91;100.00;56616.03;5074876;28;20206;-77
2023/12/13 11:48:37;;;;;;;24.90;12.18;;;;;;;;;;5074010;28;20662;-80
2023/12/13 11:51:05;;;;;;;14.77;10.52;;;;;;;23.25;100.00;56616.03;5093728;28;20233;-83
2023/12/13 11:53:33;;;;;;;24.90;11.57;;;;;;;;;;5092553;28;20208;-82
2023/12/13 11:55:59;;;;;;;16.85;11.40;;;;;;;-142.91;100.00;56616.03;5092601;28;20194;-80
2023/12/13 11:58:28;;;;;;;16.00;10.00;;;;;;;;;;5093901;28;20214;-80
2023/12/13 12:00:54;;;;;;;20.30;9.65;;;;;;;-142.91;100.00;56616.03;5095069;28;20227;-82
2023/12/13 12:03:22;;;;;;;15.85;7.70;;;;;;;-142.91;100.00;56616.03;5094812;28;20236;-82
2023/12/13 12:05:57;;;;;;;9.05;7.47;;;;;;;23.25;100.00;56616.03;5077589;28;20202;-82
2023/12/13 12:08:27;;;;;;;14.27;7.30;;;;;;;-142.91;100.00;56616.03;5096365;28;20201;-78
2023/12/13 12:10:56;;;;;;;9.52;6.30;;;;;;;;;;5073226;28;20651;-80
2023/12/13 12:13:40;;;;;;;8.05;5.40;;;;;;;-142.91;100.00;56616.03;5072329;28;20270;-80
2023/12/13 12:16:07;;;;;;;5.65;5.15;;;;;;;-142.91;100.00;56616.03;5073631;28;20233;-80
2023/12/13 12:18:40;;;;;;;5.80;5.30;;;;;;;;;;5095794;28;20244;-79
2023/12/13 12:21:09;;;;;;;5.45;4.95;;;;;;;-142.91;100.00;56616.03;5072925;28;20292;-78
2023/12/13 12:23:40;;;;;;;11.07;4.80;;;;;;;-142.91;100.00;56616.03;5095663;28;20208;-81
2023/12/13 12:26:13;;;;;;;14.73;4.70;;;;;;;-142.91;100.00;56616.03;5091978;28;20201;-82
2023/12/13 12:28:41;;;;;;;6.53;4.18;;;;;;;-142.91;100.00;56616.03;5090871;28;20686;-79
2023/12/13 12:31:09;;;;;;;7.65;4.50;;;;;;;-142.91;100.00;56616.03;5096325;28;20231;-77
2023/12/13 12:33:38;;;;;;;6.35;3.80;;;;;;;-142.91;100.00;56616.03;5094037;28;20679;-81
2023/12/13 12:36:07;;;;;;;4.38;3.75;;;;;;;23.25;100.00;56616.03;5074801;28;20202;-79
2023/12/13 12:38:34;;;;;;;8.05;4.07;;;;;;;-142.91;100.00;56616.03;5090343;28;20218;-79
2023/12/13 12:41:04;;;;;;;5.95;3.72;;;;;;;;;;5072125;28;20194;-79
2023/12/13 12:43:33;;;;;;;6.30;3.80;;;;;;;-142.91;100.00;56616.03;5091543;28;20206;-81
2023/12/13 12:46:00;;;;;;;5.95;4.03;;;;;;;-142.91;100.00;56616.03;5086823;28;20209;-82
2023/12/13 12:48:26;;;;;;;12.05;3.97;;;;;;;-142.91;100.00;56616.03;5089112;28;20251;-79